createdAt,value
2022-08-03T00:01:50.668Z,21.67
2022-08-03T00:04:18.046Z,21.84
2022-08-03T00:06:45.052Z,21.66
2022-08-03T00:09:12.404Z,21.62
2022-08-03T00:11:39.602Z,21.60
2022-08-03T00:14:07.085Z,21.65
2022-08-03T00:16:34.265Z,21.48
2022-08-03T00:19:02.367Z,21.64
2022-08-03T00:21:29.664Z,21.49
2022-08-03T00:23:57.013Z,21.43
2022-08-03T00:26:24.157Z,21.39
2022-08-03T00:28:51.268Z,21.35
2022-08-03T00:31:40.171Z,21.30
2022-08-03T00:34:06.005Z,21.34
2022-08-03T00:36:33.844Z,21.23
2022-08-03T00:39:00.832Z,21.23
2022-08-03T00:41:27.917Z,21.22
2022-08-03T00:43:54.893Z,21.04
2022-08-03T00:46:22.511Z,21.02
2022-08-03T00:48:50.942Z,21.11
2022-08-03T00:51:19.895Z,21.10
2022-08-03T00:53:47.198Z,20.99
2022-08-03T00:56:16.178Z,20.90
2022-08-03T00:58:45.747Z,20.79
2022-08-03T01:01:13.675Z,20.89
2022-08-03T01:03:41.295Z,20.82
2022-08-03T01:06:15.519Z,20.85
2022-08-03T01:09:19.651Z,20.77
2022-08-03T01:12:06.166Z,20.80
2022-08-03T01:14:41.728Z,20.84
2022-08-03T01:17:53.430Z,20.74
2022-08-03T01:20:22.239Z,20.72
2022-08-03T01:23:28.876Z,20.63
2022-08-03T01:26:22.395Z,20.73
2022-08-03T01:29:01.481Z,20.54
2022-08-03T01:32:53.636Z,20.35
2022-08-03T01:35:04.532Z,20.35
2022-08-03T01:38:05.639Z,20.40
2022-08-03T01:40:36.663Z,20.32
2022-08-03T01:43:06.610Z,20.38
2022-08-03T01:45:34.472Z,20.36
2022-08-03T01:48:02.637Z,20.28
2022-08-03T01:50:31.867Z,20.19
2022-08-03T01:53:00.078Z,20.30
2022-08-03T01:55:29.000Z,20.29
2022-08-03T01:58:05.215Z,20.36
2022-08-03T02:00:37.650Z,20.39
2022-08-03T02:03:09.660Z,20.18
2022-08-03T02:05:38.314Z,20.12
2022-08-03T02:08:07.734Z,20.20
2022-08-03T02:10:37.642Z,20.21
2022-08-03T02:13:08.072Z,20.15
2022-08-03T02:15:37.983Z,20.22
2022-08-03T02:18:08.684Z,20.11
2022-08-03T02:20:38.851Z,20.04
2022-08-03T02:23:07.143Z,19.90
2022-08-03T02:25:45.949Z,19.95
2022-08-03T02:28:20.482Z,20.02
2022-08-03T02:30:54.879Z,19.88
2022-08-03T02:33:34.271Z,19.80
2022-08-03T02:36:02.642Z,19.73
2022-08-03T02:38:36.228Z,19.63
2022-08-03T02:41:08.988Z,19.66
2022-08-03T02:43:39.226Z,19.65
2022-08-03T02:46:32.463Z,19.75
2022-08-03T02:49:34.942Z,19.79
2022-08-03T02:51:52.269Z,19.64
2022-08-03T02:54:22.016Z,19.62
2022-08-03T02:56:50.243Z,19.69
2022-08-03T02:59:19.532Z,19.62
2022-08-03T03:01:47.682Z,19.44
2022-08-03T03:04:16.567Z,19.26
2022-08-03T03:06:46.942Z,19.32
2022-08-03T03:09:18.350Z,19.32
2022-08-03T03:11:46.023Z,19.25
2022-08-03T03:14:14.626Z,19.27
2022-08-03T03:16:43.512Z,19.26
2022-08-03T03:19:15.697Z,19.27
2022-08-03T03:21:44.590Z,19.10
2022-08-03T03:24:12.282Z,19.18
2022-08-03T03:26:42.504Z,19.26
2022-08-03T03:29:09.963Z,19.18
2022-08-03T03:31:37.335Z,19.17
2022-08-03T03:34:05.120Z,19.17
2022-08-03T03:36:33.854Z,19.23
2022-08-03T03:39:15.551Z,19.07
2022-08-03T03:41:43.867Z,18.92
2022-08-03T03:44:10.925Z,18.98
2022-08-03T03:46:39.677Z,19.02
2022-08-03T03:49:07.530Z,19.01
2022-08-03T03:51:34.986Z,18.94
2022-08-03T03:54:06.969Z,19.05
2022-08-03T03:56:34.011Z,19.08
2022-08-03T03:59:01.103Z,18.88
2022-08-03T04:01:28.617Z,18.92
2022-08-03T04:03:55.754Z,18.75
2022-08-03T04:06:41.690Z,18.80
2022-08-03T04:09:29.029Z,18.81
2022-08-03T04:12:01.587Z,18.84
2022-08-03T04:14:37.390Z,18.93
2022-08-03T04:17:09.303Z,18.88
2022-08-03T04:19:49.081Z,18.93
2022-08-03T04:22:22.563Z,18.96
2022-08-03T04:25:01.373Z,19.06
2022-08-03T04:27:38.676Z,19.11
2022-08-03T04:30:09.144Z,19.22
2022-08-03T04:32:37.176Z,19.29
2022-08-03T04:35:06.171Z,19.23
2022-08-03T04:37:43.240Z,19.21
2022-08-03T04:40:22.828Z,19.34
2022-08-03T04:42:53.581Z,19.18
2022-08-03T04:45:21.719Z,19.19
2022-08-03T04:47:50.178Z,19.26
2022-08-03T04:50:21.433Z,19.23
2022-08-03T04:53:06.110Z,19.26
2022-08-03T04:55:35.474Z,19.27
2022-08-03T04:58:04.242Z,19.37
2022-08-03T05:00:31.357Z,19.40
2022-08-03T05:02:58.806Z,19.40
2022-08-03T05:05:25.750Z,19.42
2022-08-03T05:08:05.236Z,19.47
2022-08-03T05:10:38.097Z,19.58
2022-08-03T05:13:05.146Z,19.66
2022-08-03T05:15:32.073Z,19.67
2022-08-03T05:17:59.065Z,19.69
2022-08-03T05:20:26.433Z,19.81
2022-08-03T05:22:53.400Z,19.88
2022-08-03T05:25:23.371Z,19.80
2022-08-03T05:27:54.117Z,19.87
2022-08-03T05:30:32.624Z,19.93
2022-08-03T05:33:02.586Z,20.05
2022-08-03T05:35:57.444Z,20.08
2022-08-03T05:38:23.761Z,20.14
2022-08-03T05:40:56.728Z,20.17
2022-08-03T05:43:24.292Z,20.31
2022-08-03T05:46:01.752Z,20.35
2022-08-03T05:48:38.370Z,20.41
2022-08-03T05:51:07.529Z,20.57
2022-08-03T05:53:35.223Z,20.59
2022-08-03T05:56:13.328Z,20.69
2022-08-03T05:58:47.610Z,20.81
2022-08-03T06:01:17.231Z,20.87
2022-08-03T06:03:46.009Z,20.95
2022-08-03T06:06:13.245Z,21.08
2022-08-03T06:08:41.774Z,21.14
2022-08-03T06:11:09.648Z,21.22
2022-08-03T06:13:37.264Z,21.28
2022-08-03T06:16:04.569Z,21.37
2022-08-03T06:18:31.751Z,21.44
2022-08-03T06:20:58.750Z,21.46
2022-08-03T06:23:54.850Z,21.54
2022-08-03T06:26:25.378Z,21.72
2022-08-03T06:28:54.252Z,21.83
2022-08-03T06:31:33.090Z,21.90
2022-08-03T06:34:32.324Z,21.96
2022-08-03T06:36:52.152Z,22.09
2022-08-03T06:39:20.559Z,22.21
2022-08-03T06:41:52.851Z,22.32
2022-08-03T06:44:20.055Z,22.38
2022-08-03T06:46:47.708Z,22.51
2022-08-03T06:49:14.776Z,22.60
2022-08-03T06:52:05.802Z,22.66
2022-08-03T06:54:32.581Z,22.79
2022-08-03T06:57:00.047Z,22.90
2022-08-03T07:00:07.918Z,22.95
2022-08-03T07:02:19.053Z,23.01
2022-08-03T07:04:49.733Z,23.09
2022-08-03T07:07:17.489Z,23.15
2022-08-03T07:09:56.678Z,23.23
2022-08-03T07:12:26.223Z,23.27
2022-08-03T07:14:56.664Z,23.37
2022-08-03T07:17:29.047Z,23.49
2022-08-03T07:19:56.678Z,23.54
2022-08-03T07:22:24.047Z,23.58
2022-08-03T07:24:51.023Z,23.65
2022-08-03T07:27:18.154Z,23.76
2022-08-03T07:29:45.306Z,23.86
2022-08-03T07:32:12.372Z,24.05
2022-08-03T07:34:39.311Z,24.04
2022-08-03T07:37:06.463Z,24.06
2022-08-03T07:39:33.471Z,24.14
2022-08-03T07:42:00.427Z,24.23
2022-08-03T07:44:27.413Z,24.25
2022-08-03T07:46:54.412Z,24.32
2022-08-03T07:49:23.777Z,24.43
2022-08-03T07:52:10.966Z,24.49
2022-08-03T07:54:38.095Z,24.54
2022-08-03T07:57:05.147Z,24.55
2022-08-03T07:59:56.539Z,24.60
2022-08-03T08:02:19.884Z,24.70
2022-08-03T08:04:46.934Z,24.71
2022-08-03T08:07:14.037Z,24.78
2022-08-03T08:09:42.590Z,24.88
2022-08-03T08:12:15.326Z,24.98
2022-08-03T08:14:45.679Z,25.14
2022-08-03T08:17:13.933Z,25.13
2022-08-03T08:19:43.826Z,25.12
2022-08-03T08:22:30.013Z,25.26
2022-08-03T08:25:01.794Z,25.25
2022-08-03T08:28:21.626Z,25.40
2022-08-03T08:30:22.453Z,25.56
2022-08-03T08:32:50.398Z,25.61
2022-08-03T08:35:18.453Z,25.59
2022-08-03T08:37:50.703Z,25.60
2022-08-03T08:40:22.545Z,25.66
2022-08-03T08:42:58.771Z,25.82
2022-08-03T08:45:26.755Z,25.90
2022-08-03T08:48:01.658Z,25.90
2022-08-03T08:50:31.789Z,25.95
2022-08-03T08:53:03.179Z,26.04
2022-08-03T08:55:58.852Z,26.02
2022-08-03T08:58:21.755Z,26.26
2022-08-03T09:00:49.289Z,26.33
2022-08-03T09:03:22.635Z,26.32
2022-08-03T09:05:56.672Z,26.37
2022-08-03T09:08:23.928Z,26.60
2022-08-03T09:10:50.931Z,26.83
2022-08-03T09:13:18.072Z,26.88
2022-08-03T09:16:01.222Z,26.90
2022-08-03T09:18:33.338Z,26.87
2022-08-03T09:21:33.214Z,26.94
2022-08-03T09:24:06.244Z,26.93
2022-08-03T09:26:38.032Z,26.92
2022-08-03T09:29:13.884Z,26.92
2022-08-03T09:31:46.948Z,27.28
2022-08-03T09:34:17.483Z,27.15
2022-08-03T09:36:50.694Z,27.48
2022-08-03T09:39:40.231Z,27.81
2022-08-03T09:42:23.896Z,28.20
2022-08-03T09:44:52.474Z,28.33
2022-08-03T09:47:45.022Z,28.56
2022-08-03T09:50:12.917Z,28.88
2022-08-03T09:52:49.414Z,28.96
2022-08-03T09:56:30.653Z,29.18
2022-08-03T09:58:11.069Z,29.18
2022-08-03T10:01:01.793Z,29.30
2022-08-03T10:03:31.213Z,29.42
2022-08-03T10:06:00.022Z,29.46
2022-08-03T10:08:27.680Z,29.58
2022-08-03T10:10:54.736Z,29.70
2022-08-03T10:13:23.383Z,29.91
2022-08-03T10:16:24.146Z,30.02
2022-08-03T10:18:38.197Z,30.36
2022-08-03T10:21:14.048Z,30.36
2022-08-03T10:23:42.039Z,30.41
2022-08-03T10:26:18.935Z,30.64
2022-08-03T10:28:53.021Z,30.70
2022-08-03T10:31:22.301Z,30.68
2022-08-03T10:33:53.349Z,30.64
2022-08-03T10:36:27.389Z,30.71
2022-08-03T10:38:57.010Z,30.75
2022-08-03T10:41:31.362Z,30.89
2022-08-03T10:44:17.734Z,30.92
2022-08-03T10:46:47.595Z,30.98
2022-08-03T10:49:31.863Z,31.05
2022-08-03T10:52:10.412Z,31.10
2022-08-03T10:55:07.482Z,31.27
2022-08-03T10:58:11.092Z,31.52
2022-08-03T11:00:50.967Z,31.78
2022-08-03T11:03:18.555Z,31.72
2022-08-03T11:05:49.246Z,31.87
2022-08-03T11:08:23.684Z,31.94
2022-08-03T11:10:54.619Z,31.95
2022-08-03T11:13:25.610Z,31.89
2022-08-03T11:16:01.758Z,32.08
2022-08-03T11:18:31.360Z,32.23
2022-08-03T11:21:00.905Z,32.19
2022-08-03T11:24:04.714Z,32.19
2022-08-03T11:26:28.892Z,32.29
2022-08-03T11:29:31.430Z,32.37
2022-08-03T11:31:58.474Z,32.38
2022-08-03T11:34:26.171Z,32.47
2022-08-03T11:37:23.554Z,32.62
2022-08-03T11:39:54.676Z,32.74
2022-08-03T11:42:25.466Z,32.81
2022-08-03T11:44:57.381Z,33.33
2022-08-03T11:47:27.468Z,33.23
2022-08-03T11:49:59.017Z,33.18
2022-08-03T11:52:28.745Z,33.29
2022-08-03T11:54:56.996Z,33.31
2022-08-03T11:59:18.698Z,33.30
2022-08-03T12:00:33.228Z,33.48
2022-08-03T12:03:07.423Z,33.48
2022-08-03T12:05:51.104Z,33.52
2022-08-03T12:08:27.944Z,33.52
2022-08-03T12:10:58.064Z,33.62
2022-08-03T12:14:35.674Z,33.83
2022-08-03T12:16:23.944Z,34.48
2022-08-03T12:19:06.915Z,34.50
2022-08-03T12:21:34.270Z,34.67
2022-08-03T12:24:05.853Z,34.89
2022-08-03T12:26:59.230Z,34.98
2022-08-03T12:29:27.104Z,35.60
2022-08-03T12:31:56.059Z,35.84
2022-08-03T12:34:23.615Z,36.09
2022-08-03T12:36:57.709Z,35.84
2022-08-03T12:39:30.888Z,35.90
2022-08-03T12:41:59.059Z,36.40
2022-08-03T12:44:35.479Z,36.59
2022-08-03T12:47:06.583Z,36.74
2022-08-03T12:49:52.132Z,36.98
2022-08-03T12:52:22.519Z,37.19
2022-08-03T12:54:58.074Z,37.39
2022-08-03T12:57:25.409Z,38.07
2022-08-03T12:59:55.845Z,38.51
2022-08-03T13:02:27.637Z,38.88
2022-08-03T13:04:55.936Z,39.36
2022-08-03T13:07:23.565Z,40.03
2022-08-03T13:09:53.200Z,40.34
2022-08-03T13:12:27.028Z,40.41
2022-08-03T13:14:58.526Z,41.57
2022-08-03T13:17:26.677Z,41.73
2022-08-03T13:19:54.188Z,42.28
2022-08-03T13:22:24.638Z,43.21
2022-08-03T13:24:58.163Z,43.31
2022-08-03T13:28:04.148Z,44.64
2022-08-03T13:30:14.024Z,45.41
2022-08-03T13:32:50.428Z,45.56
2022-08-03T13:35:17.614Z,45.97
2022-08-03T13:37:44.725Z,46.16
2022-08-03T13:40:16.094Z,46.12
2022-08-03T13:42:44.184Z,45.97
2022-08-03T13:45:11.469Z,46.19
2022-08-03T13:47:38.479Z,46.80
2022-08-03T13:50:05.790Z,47.03
2022-08-03T13:52:36.174Z,47.43
2022-08-03T13:55:06.405Z,47.52
2022-08-03T13:58:11.638Z,47.87
2022-08-03T14:00:29.022Z,47.87
2022-08-03T14:03:17.370Z,47.97
2022-08-03T14:05:44.736Z,48.97
2022-08-03T14:08:12.508Z,47.25
2022-08-03T14:10:43.291Z,47.49
2022-08-03T14:13:14.459Z,47.79
2022-08-03T14:15:51.180Z,48.52
2022-08-03T14:18:27.753Z,48.96
2022-08-03T14:21:07.390Z,48.82
2022-08-03T14:23:36.091Z,48.24
2022-08-03T14:26:03.736Z,48.91
2022-08-03T14:28:30.783Z,48.94
2022-08-03T14:30:57.946Z,48.73
2022-08-03T14:33:25.366Z,49.10
2022-08-03T14:35:52.702Z,49.41
2022-08-03T14:38:20.660Z,49.13
2022-08-03T14:41:02.297Z,48.21
2022-08-03T14:43:33.982Z,49.41
2022-08-03T14:46:01.562Z,49.43
2022-08-03T14:50:30.372Z,50.37
2022-08-03T14:51:15.526Z,49.66
2022-08-03T14:53:42.524Z,49.70
2022-08-03T14:56:10.750Z,50.54
2022-08-03T14:58:38.374Z,50.07
2022-08-03T15:02:02.223Z,50.13
2022-08-03T15:03:54.507Z,51.38
2022-08-03T15:06:21.585Z,51.28
2022-08-03T15:09:13.798Z,51.20
2022-08-03T15:11:36.899Z,51.43
2022-08-03T15:14:08.690Z,50.48
2022-08-03T15:16:36.910Z,50.93
2022-08-03T15:19:04.848Z,50.74
2022-08-03T15:21:51.556Z,50.51
2022-08-03T15:24:19.324Z,50.60
2022-08-03T15:26:46.331Z,51.33
2022-08-03T15:30:04.968Z,51.42
2022-08-03T15:32:01.060Z,51.67
2022-08-03T15:34:28.183Z,51.81
2022-08-03T15:36:55.172Z,52.75
2022-08-03T15:39:22.208Z,52.38
2022-08-03T15:41:49.263Z,52.37
2022-08-03T15:44:19.893Z,51.84
2022-08-03T15:46:47.726Z,51.25
2022-08-03T15:49:14.934Z,51.01
2022-08-03T15:51:41.924Z,51.05
2022-08-03T15:54:09.134Z,52.57
2022-08-03T15:56:36.080Z,52.53
2022-08-03T15:59:12.776Z,52.10
2022-08-03T16:01:41.310Z,52.09
2022-08-03T16:04:08.493Z,52.27
2022-08-03T16:06:36.581Z,52.49
2022-08-03T16:09:24.089Z,51.93
2022-08-03T16:11:55.653Z,51.03
2022-08-03T16:14:32.369Z,51.88
2022-08-03T16:17:03.885Z,51.49
2022-08-03T16:19:31.130Z,51.53
2022-08-03T16:21:58.236Z,51.93
2022-08-03T16:24:27.755Z,52.11
2022-08-03T16:26:56.069Z,51.26
2022-08-03T16:29:23.858Z,50.42
2022-08-03T16:31:52.268Z,51.29
2022-08-03T16:34:20.368Z,50.78
2022-08-03T16:36:48.712Z,51.68
2022-08-03T16:39:15.772Z,50.96
2022-08-03T16:41:54.227Z,51.03
2022-08-03T16:44:30.708Z,50.73
2022-08-03T16:46:59.210Z,50.59
2022-08-03T16:49:55.805Z,51.06
2022-08-03T16:52:16.463Z,51.17
2022-08-03T16:54:53.157Z,52.03
2022-08-03T16:57:59.263Z,52.05
2022-08-03T17:00:33.701Z,52.03
2022-08-03T17:03:19.170Z,52.24
2022-08-03T17:05:51.269Z,51.91
2022-08-03T17:08:26.742Z,51.44
2022-08-03T17:10:55.905Z,51.09
2022-08-03T17:13:27.536Z,51.27
2022-08-03T17:15:57.940Z,50.33
2022-08-03T17:18:37.499Z,50.31
2022-08-03T17:21:10.410Z,50.25
2022-08-03T17:23:55.758Z,48.79
2022-08-03T17:26:30.429Z,46.75
2022-08-03T17:29:12.591Z,46.22
2022-08-03T17:31:49.610Z,45.79
2022-08-03T17:34:19.047Z,44.84
2022-08-03T17:37:03.613Z,43.55
2022-08-03T17:39:56.784Z,43.15
2022-08-03T17:42:30.093Z,41.80
2022-08-03T17:45:08.957Z,41.06
2022-08-03T17:47:43.765Z,40.71
2022-08-03T17:50:24.607Z,40.68
2022-08-03T17:53:15.410Z,40.11
2022-08-03T17:56:44.331Z,39.94
2022-08-03T17:59:44.368Z,39.57
2022-08-03T18:02:52.590Z,38.95
2022-08-03T18:05:24.830Z,38.81
2022-08-03T18:08:25.120Z,38.70
2022-08-03T18:11:14.794Z,38.34
2022-08-03T18:14:17.377Z,38.05
2022-08-03T18:16:56.199Z,37.62
2022-08-03T18:20:02.902Z,37.59
2022-08-03T18:22:13.752Z,37.53
2022-08-03T18:24:44.144Z,37.14
2022-08-03T18:27:15.803Z,37.06
2022-08-03T18:29:44.737Z,36.85
2022-08-03T18:32:17.039Z,36.85
2022-08-03T18:34:53.540Z,36.39
2022-08-03T18:37:25.590Z,36.26
2022-08-03T18:39:58.025Z,36.07
2022-08-03T18:42:26.131Z,35.91
2022-08-03T18:44:56.513Z,36.01
2022-08-03T18:47:51.821Z,35.71
2022-08-03T18:50:25.095Z,35.17
2022-08-03T18:53:19.678Z,35.01
2022-08-03T18:56:20.638Z,34.87
2022-08-03T18:58:51.467Z,34.83
2022-08-03T19:01:57.805Z,34.61
2022-08-03T19:04:48.428Z,34.28
2022-08-03T19:07:24.830Z,34.02
2022-08-03T19:10:00.032Z,33.81
2022-08-03T19:12:40.681Z,32.91
2022-08-03T19:15:12.702Z,32.88
2022-08-03T19:17:52.746Z,32.71
2022-08-03T19:20:30.826Z,32.44
2022-08-03T19:22:59.690Z,32.16
2022-08-03T19:25:35.391Z,31.88
2022-08-03T19:28:06.170Z,31.96
2022-08-03T19:30:46.410Z,31.87
2022-08-03T19:33:22.802Z,31.79
2022-08-03T19:35:51.918Z,31.61
2022-08-03T19:38:27.449Z,31.51
2022-08-03T19:41:00.316Z,31.49
2022-08-03T19:43:52.692Z,31.54
2022-08-03T19:46:30.542Z,31.63
2022-08-03T19:49:14.990Z,31.61
2022-08-03T19:51:58.854Z,31.36
2022-08-03T19:54:53.266Z,31.02
2022-08-03T19:57:32.634Z,31.09
2022-08-03T20:00:03.540Z,31.09
2022-08-03T20:02:32.897Z,30.77
2022-08-03T20:05:00.753Z,30.75
2022-08-03T20:07:33.614Z,30.81
2022-08-03T20:10:05.896Z,30.75
2022-08-03T20:12:38.752Z,30.59
2022-08-03T20:15:07.500Z,30.46
2022-08-03T20:17:56.086Z,30.58
2022-08-03T20:20:29.741Z,30.45
2022-08-03T20:22:59.586Z,30.30
2022-08-03T20:25:38.296Z,30.13
2022-08-03T20:28:15.147Z,30.08
2022-08-03T20:30:47.520Z,29.92
2022-08-03T20:33:18.290Z,30.14
2022-08-03T20:35:48.820Z,30.04
2022-08-03T20:38:18.738Z,29.87
2022-08-03T20:40:49.677Z,29.90
2022-08-03T20:43:19.927Z,29.94
2022-08-03T20:45:59.918Z,29.90
2022-08-03T20:48:37.226Z,29.74
2022-08-03T20:51:05.376Z,29.72
2022-08-03T20:53:59.452Z,29.63
2022-08-03T20:56:33.657Z,29.64
2022-08-03T20:59:07.106Z,29.60
2022-08-03T21:01:42.252Z,29.30
2022-08-03T21:04:11.927Z,29.27
2022-08-03T21:06:53.490Z,29.29
2022-08-03T21:09:39.852Z,29.15
2022-08-03T21:12:12.822Z,29.22
2022-08-03T21:14:58.951Z,29.18
2022-08-03T21:17:40.569Z,28.92
2022-08-03T21:20:13.216Z,28.92
2022-08-03T21:22:56.380Z,28.84
2022-08-03T21:25:30.567Z,28.91
2022-08-03T21:27:58.681Z,28.76
2022-08-03T21:30:28.055Z,28.70
2022-08-03T21:32:58.252Z,28.64
2022-08-03T21:35:26.727Z,28.59
2022-08-03T21:38:13.231Z,28.61
2022-08-03T21:40:44.388Z,28.43
2022-08-03T21:43:11.472Z,28.25
2022-08-03T21:46:06.346Z,28.13
2022-08-03T21:48:40.092Z,28.09
2022-08-03T21:51:09.723Z,27.97
2022-08-03T21:54:02.877Z,27.71
2022-08-03T21:56:27.875Z,27.87
2022-08-03T21:59:00.088Z,27.74
2022-08-03T22:01:29.470Z,27.63
2022-08-03T22:04:09.310Z,27.55
2022-08-03T22:06:42.297Z,27.54
2022-08-03T22:09:09.696Z,27.57
2022-08-03T22:11:39.831Z,27.57
2022-08-03T22:14:07.058Z,27.55
2022-08-03T22:16:34.139Z,27.48
2022-08-03T22:19:01.187Z,27.46
2022-08-03T22:21:36.098Z,27.54
2022-08-03T22:24:05.861Z,27.27
2022-08-03T22:26:35.833Z,27.12
2022-08-03T22:29:08.165Z,27.01
2022-08-03T22:31:57.453Z,26.94
2022-08-03T22:34:27.067Z,27.09
2022-08-03T22:37:01.423Z,27.29
2022-08-03T22:39:29.688Z,26.99
2022-08-03T22:41:59.967Z,27.12
2022-08-03T22:44:28.112Z,26.97
2022-08-03T22:46:56.669Z,26.95
2022-08-03T22:49:24.867Z,27.06
2022-08-03T22:51:53.407Z,26.97
2022-08-03T22:54:20.847Z,26.97
2022-08-03T22:56:49.126Z,26.97
2022-08-03T22:59:40.313Z,27.03
2022-08-03T23:02:20.750Z,26.92
2022-08-03T23:04:55.267Z,26.94
2022-08-03T23:07:32.642Z,26.92
2022-08-03T23:10:03.623Z,26.81
2022-08-03T23:12:35.815Z,26.77
2022-08-03T23:15:07.867Z,26.72
2022-08-03T23:17:57.657Z,26.59
2022-08-03T23:20:27.038Z,26.56
2022-08-03T23:22:57.692Z,26.60
2022-08-03T23:25:26.536Z,26.56
2022-08-03T23:28:05.241Z,26.61
2022-08-03T23:30:37.082Z,26.72
2022-08-03T23:33:04.570Z,26.51
2022-08-03T23:36:28.145Z,26.40
2022-08-03T23:38:37.970Z,26.33
2022-08-03T23:41:08.031Z,26.26
2022-08-03T23:43:45.168Z,26.22
2022-08-03T23:46:23.811Z,26.07
2022-08-03T23:48:51.150Z,26.02
2022-08-03T23:51:40.916Z,26.05
2022-08-03T23:54:26.676Z,26.11
2022-08-03T23:57:15.326Z,26.03
